Impacts TAF Board
For situational awareness. Not to be used for flight planning purposes.
IDs:

KVRB - Vero Beach Muni, FL, US

Issued at 1749 UTC 21 Sep 2021
Updated at 2024 UTC 21 Sep 2021
Potential Impact None Slight Moderate High
Time1953Z 21/21Z 21/22Z 21/23Z 22/00Z 22/01Z 22/02Z 22/03Z 22/04Z 22/05Z 22/06Z 22/07Z 22/08Z 22/09Z>>
Type OBS PRVL PRVL PRVL PRVL PRVL PRVL PRVL PRVL PRVL PRVL PRVL PRVL PRVL
VIS 10 5 5 >6 >6 >6 >6 >6 >6 >6 >6 >6 >6 >6
CIG -- 200 200 -- -- -- -- -- -- -- -- -- -- --
Cover SCT BKN BKN SCT SCT SCT SCT SCT SCT SCT SCT SCT SCT SCT
FltCat VFR MVFR MVFR VFR VFR VFR VFR VFR VFR VFR VFR VFR VFR VFR
WX -- -SHRA -SHRA -- -- -- -- -- -- -- -- -- -- --
WDir 110 120 120 VRB VRB VRB VRB VRB VRB VRB VRB VRB VRB VRB
WSpd 6 7 7 3 3 3 3 3 3 3 3 3 3 3
WGst -- -- -- -- -- -- -- -- -- -- -- -- -- --
Raw TAF
KVRB 211749Z 2118/2218 11007KT P6SM -RA FEW020 SCT100
  FM212100 12007KT 5SM -SHRA SCT035 BKN200
  FM212300 VRB03KT P6SM FEW035 SCT150


Raw METAR
KVRB 211953Z 11006KT 10SM SCT070 28/24 A3003 RMK AO2 SLP169 T02780244
KVRB 211853Z 10005KT 10SM CLR 28/25 A3005 RMK AO2 SLP174 T02780250
KVRB 211753Z 10005KT 10SM BKN039 BKN045 BKN050 27/25 A3005 RMK AO2 LTG DSNT W RAE34 SLP174 P0003 60008 T02720250 10272 20250 58013

METAR Board
Radar Display
Forecast Discussion
For situational awareness. Not to be used for flight planning purposes.